Time;durP1;ratioP1;P1;durP2;ratioP2;P2;SDS_P1;SDS_P2;PMS_P1;PMS_P2;Temp;Humidity;BMP_temperature;BMP_pressure;BME280_temperature;BME280_humidity;BME280_pressure;Samples;Min_cycle;Max_cycle;Signal;HPM_P1;HPM_P2
2023/06/02 00:01:00;;;;;;;8.27;7.47;;;;;;;;;;5013233;28;20439;-57
2023/06/02 00:03:29;;;;;;;9.47;7.47;;;;;;;;;;5013068;28;20414;-56
2023/06/02 00:05:57;;;;;;;7.77;7.07;;;;;;;;;;5013090;28;20936;-57
2023/06/02 00:08:23;;;;;;;8.00;6.50;;;;;;;;;;5013464;28;20399;-56
2023/06/02 00:10:54;;;;;;;11.23;7.93;;;;;;;;;;5013107;28;20423;-57
2023/06/02 00:13:20;;;;;;;12.17;7.50;;;;;;;;;;5012708;28;20445;-57
2023/06/02 00:15:46;;;;;;;12.73;8.70;;;;;;;;;;5013070;28;20411;-57
2023/06/02 00:18:12;;;;;;;10.33;8.10;;;;;;;;;;5012801;28;20501;-56
2023/06/02 00:20:39;;;;;;;10.73;8.90;;;;;;;;;;5013109;28;20836;-57
2023/06/02 00:23:08;;;;;;;13.30;8.87;;;;;;;;;;5013021;28;20412;-57
2023/06/02 00:25:34;;;;;;;10.10;9.10;;;;;;;;;;5012911;28;20435;-57
2023/06/02 00:28:00;;;;;;;9.07;8.27;;;;;;;;;;5012953;28;20517;-56
2023/06/02 00:30:28;;;;;;;12.07;8.60;;;;;;;;;;5012728;28;20924;-57
2023/06/02 00:32:54;;;;;;;15.23;9.70;;;;;;;;;;5012810;28;20561;-57
2023/06/02 00:35:20;;;;;;;9.23;7.87;;;;;;;;;;5011461;28;20470;-57
2023/06/02 00:37:49;;;;;;;24.63;10.23;;;;;;;;;;5011868;28;20562;-57
2023/06/02 00:40:15;;;;;;;15.80;10.67;;;;;;;;;;5011354;28;20425;-57
2023/06/02 00:42:43;;;;;;;11.07;9.97;;;;;;;;;;5012627;28;20530;-57
2023/06/02 00:45:09;;;;;;;14.73;9.57;;;;;;;;;;5012565;28;20414;-57
2023/06/02 00:47:35;;;;;;;14.10;10.20;;;;;;;;;;5012681;28;20437;-57
2023/06/02 00:50:01;;;;;;;17.03;12.77;;;;;;;;;;5012398;28;20443;-57
2023/06/02 00:52:28;;;;;;;83.33;43.23;;;;;;;;;;5012394;28;20446;-56
2023/06/02 00:54:54;;;;;;;128.53;68.20;;;;;;;;;;5012364;28;20437;-57
2023/06/02 00:57:21;;;;;;;54.40;31.43;;;;;;;;;;5012209;28;20461;-57
2023/06/02 00:59:49;;;;;;;59.83;31.50;;;;;;;;;;5012360;28;20409;-57
2023/06/02 01:02:18;;;;;;;108.10;61.70;;;;;;;;;;5012027;28;20823;-57
2023/06/02 01:04:47;;;;;;;35.40;23.40;;;;;;;;;;5012305;28;20932;-56
2023/06/02 01:07:13;;;;;;;43.10;26.60;;;;;;;;;;5012159;28;20442;-56
2023/06/02 01:09:41;;;;;;;67.93;37.17;;;;;;;;;;5012340;28;20407;-57
2023/06/02 01:12:08;;;;;;;16.87;10.53;;;;;;;;;;5012212;28;20445;-56
2023/06/02 01:14:36;;;;;;;13.20;9.80;;;;;;;;;;5012160;28;20439;-57
2023/06/02 01:17:02;;;;;;;14.43;10.07;;;;;;;;;;5012307;28;20455;-56
2023/06/02 01:19:31;;;;;;;16.67;11.03;;;;;;;;;;5012301;28;20522;-56
2023/06/02 01:22:01;;;;;;;11.10;9.63;;;;;;;;;;5012278;28;20421;-56
2023/06/02 01:24:37;;;;;;;10.40;9.43;;;;;;;;;;5012244;28;20423;-56
2023/06/02 01:27:06;;;;;;;14.03;10.10;;;;;;;;;;5012135;28;20518;-57
2023/06/02 01:29:35;;;;;;;10.07;8.97;;;;;;;;;;5012126;28;20423;-56
2023/06/02 01:32:02;;;;;;;13.27;8.90;;;;;;;;;;5012130;28;20446;-57
2023/06/02 01:34:51;;;;;;;13.53;10.03;;;;;;;;;;5012074;28;20786;-57
2023/06/02 01:37:19;;;;;;;10.50;8.90;;;;;;;;;;5004153;28;20488;-56
2023/06/02 01:39:46;;;;;;;173.43;102.87;;;;;;;;;;5012432;28;20484;-56
2023/06/02 01:42:13;;;;;;;289.47;170.87;;;;;;;;;;5010856;28;20431;-57
2023/06/02 01:44:39;;;;;;;296.80;190.67;;;;;;;;;;5011782;28;20872;-57
2023/06/02 01:47:05;;;;;;;184.30;107.27;;;;;;;;;;5011832;28;20432;-57
2023/06/02 01:49:32;;;;;;;96.47;52.77;;;;;;;;;;5013811;28;20441;-56
2023/06/02 01:52:00;;;;;;;32.27;21.53;;;;;;;;;;5015898;28;20972;-57
2023/06/02 01:54:26;;;;;;;27.07;17.00;;;;;;;;;;5014748;28;20458;-57
2023/06/02 01:56:52;;;;;;;177.90;106.23;;;;;;;;;;5015614;28;20863;-57
2023/06/02 01:59:18;;;;;;;21.53;11.37;;;;;;;;;;5015471;28;20422;-57
2023/06/02 02:01:45;;;;;;;16.67;9.27;;;;;;;;;;5015494;28;20479;-57
2023/06/02 02:04:11;;;;;;;10.97;8.30;;;;;;;;;;5015600;28;20569;-57
2023/06/02 02:06:37;;;;;;;12.63;8.37;;;;;;;;;;5015786;28;20786;-57
2023/06/02 02:09:09;;;;;;;14.57;8.37;;;;;;;;;;5015797;28;20545;-57
2023/06/02 02:11:35;;;;;;;10.63;7.57;;;;;;;;;;5015620;28;20401;-57
2023/06/02 02:14:04;;;;;;;8.80;7.67;;;;;;;;;;5015193;28;20821;-57
2023/06/02 02:16:30;;;;;;;13.63;7.50;;;;;;;;;;5015537;28;20430;-57
2023/06/02 02:18:59;;;;;;;10.97;8.13;;;;;;;;;;5015353;28;20511;-57
2023/06/02 02:21:28;;;;;;;13.37;8.07;;;;;;;;;;5015550;28;20437;-58
2023/06/02 02:23:54;;;;;;;14.90;8.43;;;;;;;;;;5015233;28;20753;-57
2023/06/02 02:26:20;;;;;;;14.43;8.83;;;;;;;;;;5014932;28;20440;-57
2023/06/02 02:28:47;;;;;;;20.70;8.83;;;;;;;;;;5015102;28;20420;-57
2023/06/02 02:31:13;;;;;;;10.63;8.57;;;;;;;;;;5015053;28;20923;-57
2023/06/02 02:33:39;;;;;;;10.50;8.37;;;;;;;;;;5014879;28;20413;-58
2023/06/02 02:36:06;;;;;;;9.90;8.90;;;;;;;;;;5015004;28;20421;-57
2023/06/02 02:38:34;;;;;;;9.07;7.53;;;;;;;;;;5014720;28;20479;-58
2023/06/02 02:41:00;;;;;;;12.70;9.00;;;;;;;;;;5014971;28;20687;-58
2023/06/02 02:43:26;;;;;;;9.37;8.37;;;;;;;;;;5014559;28;20460;-58
2023/06/02 02:45:52;;;;;;;10.57;8.07;;;;;;;;;;5013562;28;20464;-56
2023/06/02 02:48:20;;;;;;;12.37;8.37;;;;;;;;;;5014764;28;20425;-58
2023/06/02 02:50:50;;;;;;;8.97;8.07;;;;;;;;;;5014683;28;20562;-58
2023/06/02 02:53:16;;;;;;;14.47;8.60;;;;;;;;;;5014676;28;20433;-57
2023/06/02 02:55:44;;;;;;;9.33;8.43;;;;;;;;;;5014601;28;20471;-58
2023/06/02 02:58:12;;;;;;;9.37;7.87;;;;;;;;;;5010914;28;20458;-57
2023/06/02 03:00:41;;;;;;;16.60;9.17;;;;;;;;;;4993172;28;20549;-58
2023/06/02 03:03:07;;;;;;;10.60;8.50;;;;;;;;;;4994170;28;20436;-57
2023/06/02 03:05:37;;;;;;;12.10;8.10;;;;;;;;;;4994884;28;20889;-58
2023/06/02 03:08:07;;;;;;;13.43;8.10;;;;;;;;;;4994605;28;20442;-58
2023/06/02 03:10:32;;;;;;;8.53;7.60;;;;;;;;;;4994697;28;20401;-58
2023/06/02 03:12:58;;;;;;;8.63;7.83;;;;;;;;;;4994421;28;20434;-58
2023/06/02 03:15:27;;;;;;;9.37;8.30;;;;;;;;;;4994982;28;20543;-58
2023/06/02 03:17:55;;;;;;;8.97;8.07;;;;;;;;;;4994287;28;21029;-58
2023/06/02 03:20:21;;;;;;;8.97;7.50;;;;;;;;;;4994584;28;20444;-56
2023/06/02 03:22:50;;;;;;;8.70;7.90;;;;;;;;;;4994450;28;20492;-58
2023/06/02 03:25:21;;;;;;;9.10;7.90;;;;;;;;;;4994502;28;20429;-58
2023/06/02 03:27:53;;;;;;;13.23;8.33;;;;;;;;;;4993090;28;20463;-58
2023/06/02 03:30:20;;;;;;;13.63;8.33;;;;;;;;;;4992917;28;20840;-57
2023/06/02 03:32:46;;;;;;;15.10;8.27;;;;;;;;;;4993994;28;20444;-58
2023/06/02 03:35:12;;;;;;;14.47;8.60;;;;;;;;;;4994236;28;20417;-58
2023/06/02 03:37:39;;;;;;;12.70;8.13;;;;;;;;;;4993866;28;20498;-58
2023/06/02 03:40:06;;;;;;;20.77;9.67;;;;;;;;;;4993531;28;20758;-57
2023/06/02 03:42:32;;;;;;;10.17;8.67;;;;;;;;;;4993783;28;20500;-58
2023/06/02 03:44:57;;;;;;;12.93;8.40;;;;;;;;;;4993911;28;20504;-58
2023/06/02 03:47:23;;;;;;;10.27;8.80;;;;;;;;;;4994093;28;20413;-58
2023/06/02 03:49:50;;;;;;;13.77;7.93;;;;;;;;;;4994174;28;20903;-57
2023/06/02 03:52:16;;;;;;;10.77;8.50;;;;;;;;;;4993968;28;20429;-58
2023/06/02 03:54:42;;;;;;;15.30;9.30;;;;;;;;;;4994042;28;20509;-58
2023/06/02 03:57:08;;;;;;;12.60;8.30;;;;;;;;;;4993667;28;20479;-57
2023/06/02 03:59:34;;;;;;;11.10;8.50;;;;;;;;;;4993740;28;20440;-58
2023/06/02 04:02:00;;;;;;;11.50;8.63;;;;;;;;;;4993865;28;20454;-58
2023/06/02 04:04:26;;;;;;;13.13;8.70;;;;;;;;;;4993791;28;20490;-57
2023/06/02 04:06:53;;;;;;;11.10;8.90;;;;;;;;;;4993920;28;20440;-56
2023/06/02 04:09:19;;;;;;;12.90;8.33;;;;;;;;;;4993592;28;20858;-58
2023/06/02 04:11:45;;;;;;;22.43;9.53;;;;;;;;;;4992813;28;20928;-58
2023/06/02 04:14:13;;;;;;;11.47;7.87;;;;;;;;;;4993559;28;20515;-58
2023/06/02 04:16:39;;;;;;;10.50;8.33;;;;;;;;;;4993590;28;20417;-58
2023/06/02 04:19:05;;;;;;;13.40;8.27;;;;;;;;;;4993351;28;20491;-58
2023/06/02 04:21:31;;;;;;;10.63;8.30;;;;;;;;;;4993354;28;21016;-58
2023/06/02 04:23:57;;;;;;;8.93;8.13;;;;;;;;;;4993379;28;20480;-58
2023/06/02 04:26:23;;;;;;;8.93;8.03;;;;;;;;;;4993503;28;20880;-57
2023/06/02 04:28:51;;;;;;;10.70;7.83;;;;;;;;;;4993350;28;20463;-57
2023/06/02 04:31:26;;;;;;;8.60;7.53;;;;;;;;;;4993562;28;20475;-58
2023/06/02 04:33:53;;;;;;;9.00;8.10;;;;;;;;;;4993410;28;20444;-57
2023/06/02 04:36:19;;;;;;;16.73;8.60;;;;;;;;;;4993432;28;20925;-57
2023/06/02 04:38:49;;;;;;;9.13;8.13;;;;;;;;;;4993261;28;20480;-58
2023/06/02 04:41:15;;;;;;;10.37;7.90;;;;;;;;;;4993521;28;20401;-58
2023/06/02 04:43:42;;;;;;;11.23;8.63;;;;;;;;;;4993176;28;20441;-58
2023/06/02 04:46:08;;;;;;;10.40;7.97;;;;;;;;;;4993282;28;20451;-58
2023/06/02 04:48:34;;;;;;;14.53;8.20;;;;;;;;;;4993481;28;20424;-58
2023/06/02 04:51:00;;;;;;;10.97;8.37;;;;;;;;;;4992979;28;20423;-58
2023/06/02 04:53:28;;;;;;;14.97;9.00;;;;;;;;;;4993133;28;20418;-56
2023/06/02 04:55:56;;;;;;;10.23;8.60;;;;;;;;;;4992980;28;20436;-58
2023/06/02 04:58:22;;;;;;;9.80;8.13;;;;;;;;;;4993069;28;20466;-59
2023/06/02 05:00:48;;;;;;;13.83;9.40;;;;;;;;;;4992942;28;20441;-58
2023/06/02 05:03:14;;;;;;;11.73;9.40;;;;;;;;;;4993049;28;20432;-58
2023/06/02 05:05:40;;;;;;;10.03;9.00;;;;;;;;;;4993089;28;20412;-58
2023/06/02 05:08:06;;;;;;;14.03;9.60;;;;;;;;;;4991879;28;20462;-57
2023/06/02 05:10:35;;;;;;;10.87;7.90;;;;;;;;;;4993110;28;20432;-57
2023/06/02 05:13:00;;;;;;;12.50;9.37;;;;;;;;;;4992447;28;20535;-58
2023/06/02 05:15:29;;;;;;;13.00;8.17;;;;;;;;;;4993057;28;20465;-58
2023/06/02 05:17:57;;;;;;;11.50;9.30;;;;;;;;;;4992351;28;20467;-57
2023/06/02 05:20:23;;;;;;;14.67;9.83;;;;;;;;;;4992379;28;20439;-58
2023/06/02 05:22:52;;;;;;;13.10;9.00;;;;;;;;;;4992181;28;20967;-58
2023/06/02 05:25:18;;;;;;;12.33;10.10;;;;;;;;;;4998786;28;20412;-57
2023/06/02 05:27:44;;;;;;;10.27;9.23;;;;;;;;;;4999619;28;20903;-58
2023/06/02 05:30:10;;;;;;;15.97;9.10;;;;;;;;;;4999076;28;20474;-58
2023/06/02 05:32:36;;;;;;;10.90;8.90;;;;;;;;;;4999256;28;20409;-56
2023/06/02 05:35:06;;;;;;;9.90;8.83;;;;;;;;;;4999109;28;20445;-58
2023/06/02 05:37:32;;;;;;;13.70;10.03;;;;;;;;;;4999252;28;20594;-57
2023/06/02 05:39:58;;;;;;;15.37;9.20;;;;;;;;;;4999262;28;20886;-59
2023/06/02 05:42:27;;;;;;;13.13;9.17;;;;;;;;;;4999086;28;20407;-57
2023/06/02 05:45:05;;;;;;;13.33;9.30;;;;;;;;;;4999245;28;20444;-58
2023/06/02 05:47:31;;;;;;;10.63;9.53;;;;;;;;;;4999293;28;20469;-58
2023/06/02 05:49:57;;;;;;;13.27;8.80;;;;;;;;;;4997994;28;20423;-58
2023/06/02 05:52:25;;;;;;;11.00;9.90;;;;;;;;;;4998867;28;20429;-58
2023/06/02 05:54:51;;;;;;;11.33;9.20;;;;;;;;;;4998972;28;20415;-57
2023/06/02 05:57:19;;;;;;;13.40;9.10;;;;;;;;;;4998662;28;20474;-58
2023/06/02 05:59:50;;;;;;;11.70;10.47;;;;;;;;;;4998689;28;20506;-58
2023/06/02 06:02:16;;;;;;;13.37;10.10;;;;;;;;;;4998319;28;20434;-58
2023/06/02 06:04:42;;;;;;;11.77;9.27;;;;;;;;;;4997453;28;20774;-58
2023/06/02 06:07:09;;;;;;;16.30;9.10;;;;;;;;;;4997372;28;20929;-58
2023/06/02 06:09:37;;;;;;;14.93;8.83;;;;;;;;;;4997773;28;20409;-57
2023/06/02 06:12:03;;;;;;;14.53;9.47;;;;;;;;;;4997600;28;20535;-57
2023/06/02 06:14:29;;;;;;;11.23;9.20;;;;;;;;;;4998029;28;20420;-58
2023/06/02 06:16:58;;;;;;;10.87;9.47;;;;;;;;;;4998203;28;20421;-60
2023/06/02 06:19:24;;;;;;;10.63;9.07;;;;;;;;;;4998508;28;20434;-57
2023/06/02 06:21:50;;;;;;;12.93;9.67;;;;;;;;;;4999107;28;20508;-59
2023/06/02 06:24:16;;;;;;;11.90;9.40;;;;;;;;;;4998775;28;20468;-58
2023/06/02 06:26:42;;;;;;;12.40;9.20;;;;;;;;;;4998726;28;20435;-58
2023/06/02 06:29:08;;;;;;;18.90;9.50;;;;;;;;;;4998687;28;20419;-58
2023/06/02 06:31:34;;;;;;;10.00;9.00;;;;;;;;;;4998948;28;20404;-58
2023/06/02 06:34:00;;;;;;;10.80;9.80;;;;;;;;;;4998816;28;20417;-58
2023/06/02 06:36:26;;;;;;;18.80;9.43;;;;;;;;;;4994789;28;20535;-57
2023/06/02 06:38:52;;;;;;;11.90;9.40;;;;;;;;;;4995552;28;21018;-58
2023/06/02 06:41:20;;;;;;;9.33;8.53;;;;;;;;;;4994415;28;20450;-62
2023/06/02 06:43:48;;;;;;;12.43;9.30;;;;;;;;;;4995430;28;20865;-61
2023/06/02 06:46:15;;;;;;;10.27;9.20;;;;;;;;;;4993858;28;20468;-59
2023/06/02 06:49:10;;;;;;;10.40;9.30;;;;;;;;;;4995281;28;20479;-61
2023/06/02 06:51:36;;;;;;;10.63;9.20;;;;;;;;;;4993107;28;20534;-61
2023/06/02 06:54:02;;;;;;;14.73;9.47;;;;;;;;;;4995126;28;20455;-59
2023/06/02 06:56:28;;;;;;;13.50;9.60;;;;;;;;;;4995111;28;20413;-61
2023/06/02 06:58:57;;;;;;;11.13;8.87;;;;;;;;;;4994966;28;20519;-59
2023/06/02 07:01:23;;;;;;;11.80;9.37;;;;;;;;;;4994935;28;20519;-61
2023/06/02 07:03:49;;;;;;;10.60;9.60;;;;;;;;;;4994943;28;20417;-59
2023/06/02 07:06:15;;;;;;;13.50;10.07;;;;;;;;;;4994959;28;20405;-60
2023/06/02 07:08:44;;;;;;;14.80;9.97;;;;;;;;;;4994706;28;20989;-59
2023/06/02 07:11:12;;;;;;;13.50;9.07;;;;;;;;;;4994898;28;20584;-60
2023/06/02 07:13:38;;;;;;;16.53;9.80;;;;;;;;;;4994659;28;20494;-59
2023/06/02 07:16:05;;;;;;;12.00;9.33;;;;;;;;;;4994927;28;20441;-60
2023/06/02 07:18:31;;;;;;;18.87;9.80;;;;;;;;;;4994333;28;20467;-60
2023/06/02 07:20:57;;;;;;;10.67;9.67;;;;;;;;;;4994440;28;20749;-60
2023/06/02 07:23:22;;;;;;;18.43;9.63;;;;;;;;;;4994729;28;20548;-60
2023/06/02 07:25:48;;;;;;;10.53;9.17;;;;;;;;;;4993762;28;20444;-59
2023/06/02 07:28:14;;;;;;;18.07;9.90;;;;;;;;;;4994286;28;20480;-60
2023/06/02 07:30:47;;;;;;;10.50;9.50;;;;;;;;;;4994000;28;20425;-59
2023/06/02 07:33:16;;;;;;;11.00;9.83;;;;;;;;;;4994628;28;20757;-59
2023/06/02 07:35:42;;;;;;;10.40;9.00;;;;;;;;;;4994397;28;20947;-61
2023/06/02 07:38:08;;;;;;;9.90;8.90;;;;;;;;;;4994828;28;20500;-59
2023/06/02 07:40:34;;;;;;;10.37;9.37;;;;;;;;;;4994370;28;20507;-60
2023/06/02 07:43:00;;;;;;;15.63;9.53;;;;;;;;;;4994383;28;20437;-60
2023/06/02 07:45:31;;;;;;;38.10;25.17;;;;;;;;;;4994336;28;20421;-60
2023/06/02 07:47:59;;;;;;;34.37;21.30;;;;;;;;;;4993998;28;20444;-59
2023/06/02 07:50:25;;;;;;;53.17;27.33;;;;;;;;;;4994249;28;20420;-59
2023/06/02 07:52:51;;;;;;;11.37;9.87;;;;;;;;;;4994170;28;20519;-60
2023/06/02 07:55:17;;;;;;;13.50;10.03;;;;;;;;;;4993790;28;20508;-60
2023/06/02 07:57:43;;;;;;;10.60;8.50;;;;;;;;;;4993902;28;20467;-60
2023/06/02 08:00:12;;;;;;;10.50;9.40;;;;;;;;;;4994123;28;20516;-60
2023/06/02 08:02:41;;;;;;;11.43;9.93;;;;;;;;;;4992828;28;20426;-59
2023/06/02 08:05:09;;;;;;;10.87;9.70;;;;;;;;;;4994251;28;20513;-60
2023/06/02 08:07:35;;;;;;;10.97;9.97;;;;;;;;;;4994216;28;20434;-60
2023/06/02 08:10:02;;;;;;;10.20;9.23;;;;;;;;;;4994036;28;20507;-59
2023/06/02 08:12:31;;;;;;;16.40;9.10;;;;;;;;;;4994276;28;20813;-60
2023/06/02 08:14:57;;;;;;;11.10;9.30;;;;;;;;;;4994093;28;20938;-60
2023/06/02 08:17:29;;;;;;;12.33;9.13;;;;;;;;;;4994134;28;20466;-60
2023/06/02 08:19:55;;;;;;;9.73;8.93;;;;;;;;;;4994164;28;20816;-61
2023/06/02 08:22:25;;;;;;;13.13;9.13;;;;;;;;;;4993594;28;20422;-60
2023/06/02 08:24:52;;;;;;;10.90;9.80;;;;;;;;;;4993658;28;20443;-60
2023/06/02 08:27:18;;;;;;;16.63;9.57;;;;;;;;;;4992438;28;20446;-60
2023/06/02 08:29:44;;;;;;;9.60;8.70;;;;;;;;;;4992902;28;20886;-59
2023/06/02 08:32:10;;;;;;;14.10;8.50;;;;;;;;;;4993338;28;20414;-60
2023/06/02 08:34:37;;;;;;;9.33;8.43;;;;;;;;;;4993714;28;20926;-60
2023/06/02 08:37:03;;;;;;;9.77;8.13;;;;;;;;;;4993746;28;20895;-60
2023/06/02 08:39:29;;;;;;;12.47;8.30;;;;;;;;;;4993756;28;20910;-60
2023/06/02 08:42:01;;;;;;;8.90;8.20;;;;;;;;;;4993803;28;20813;-60
2023/06/02 08:44:31;;;;;;;7.70;7.00;;;;;;;;;;4993638;28;20418;-60
2023/06/02 08:46:57;;;;;;;12.00;9.27;;;;;;;;;;4993514;28;20415;-60
2023/06/02 08:49:24;;;;;;;10.40;9.40;;;;;;;;;;4993475;28;20444;-60
2023/06/02 08:51:54;;;;;;;7.83;7.23;;;;;;;;;;4993691;28;20849;-60
2023/06/02 08:54:20;;;;;;;11.93;8.37;;;;;;;;;;4993518;28;20442;-60
2023/06/02 08:56:49;;;;;;;15.53;8.30;;;;;;;;;;4993623;28;20777;-60
2023/06/02 08:59:19;;;;;;;15.50;9.30;;;;;;;;;;4992724;28;20844;-60
2023/06/02 09:01:47;;;;;;;11.47;7.57;;;;;;;;;;4993469;28;20923;-60
2023/06/02 09:04:16;;;;;;;9.27;8.57;;;;;;;;;;4993283;28;20816;-60
2023/06/02 09:06:45;;;;;;;10.07;9.20;;;;;;;;;;4993254;28;20416;-60
2023/06/02 09:09:13;;;;;;;9.30;8.30;;;;;;;;;;4992979;28;20414;-60
2023/06/02 09:11:39;;;;;;;9.30;7.90;;;;;;;;;;4993335;28;20413;-60
2023/06/02 09:14:19;;;;;;;14.93;8.53;;;;;;;;;;4992957;28;20437;-60
2023/06/02 09:16:47;;;;;;;10.70;8.70;;;;;;;;;;4993693;28;20483;-60
2023/06/02 09:19:13;;;;;;;12.37;8.30;;;;;;;;;;4992919;28;20472;-60
2023/06/02 09:21:41;;;;;;;9.03;8.30;;;;;;;;;;4992996;28;20410;-60
2023/06/02 09:24:09;;;;;;;9.93;8.00;;;;;;;;;;4992914;28;20422;-60
2023/06/02 09:26:38;;;;;;;9.83;8.20;;;;;;;;;;4992891;28;20881;-60
2023/06/02 09:29:12;;;;;;;8.80;8.00;;;;;;;;;;4991720;28;20424;-60
2023/06/02 09:31:52;;;;;;;9.77;8.60;;;;;;;;;;4992791;28;20420;-60
2023/06/02 09:34:18;;;;;;;15.33;9.17;;;;;;;;;;4992716;28;20919;-60
2023/06/02 09:36:46;;;;;;;8.03;7.43;;;;;;;;;;4993059;28;20450;-60
2023/06/02 09:39:13;;;;;;;8.87;8.00;;;;;;;;;;4992654;28;20567;-60
2023/06/02 09:41:39;;;;;;;9.97;9.00;;;;;;;;;;4992955;28;20922;-60
2023/06/02 09:44:12;;;;;;;9.13;8.27;;;;;;;;;;4992863;28;20430;-60
2023/06/02 09:46:42;;;;;;;9.10;8.30;;;;;;;;;;4992880;28;20857;-60
2023/06/02 09:49:09;;;;;;;9.07;8.27;;;;;;;;;;4992683;28;20438;-60
2023/06/02 09:51:38;;;;;;;10.37;9.33;;;;;;;;;;4992751;28;20785;-60
2023/06/02 09:54:05;;;;;;;9.30;7.50;;;;;;;;;;4992763;28;20500;-60
2023/06/02 09:56:34;;;;;;;8.93;8.00;;;;;;;;;;4992870;28;20478;-60
2023/06/02 09:59:01;;;;;;;11.30;8.47;;;;;;;;;;4992682;28;21115;-60
2023/06/02 10:01:27;;;;;;;15.13;8.23;;;;;;;;;;4992932;28;20466;-59
2023/06/02 10:03:53;;;;;;;11.77;7.40;;;;;;;;;;4993318;28;20882;-60
2023/06/02 10:06:31;;;;;;;10.47;7.27;;;;;;;;;;4992811;28;20429;-60
2023/06/02 10:09:16;;;;;;;8.93;8.00;;;;;;;;;;4992856;28;20432;-60
2023/06/02 10:11:51;;;;;;;9.53;7.70;;;;;;;;;;4994655;28;20653;-60
2023/06/02 10:14:32;;;;;;;9.70;8.20;;;;;;;;;;4996599;28;20437;-59
2023/06/02 10:17:20;;;;;;;8.80;7.90;;;;;;;;;;4996182;28;20919;-60
2023/06/02 10:19:55;;;;;;;8.83;8.03;;;;;;;;;;4996298;28;20929;-59
2023/06/02 10:22:37;;;;;;;9.20;8.33;;;;;;;;;;4996395;28;20407;-60
2023/06/02 10:25:27;;;;;;;9.10;8.20;;;;;;;;;;4996264;28;20963;-60
2023/06/02 10:27:56;;;;;;;8.23;7.53;;;;;;;;;;4995944;28;20411;-60
2023/06/02 10:30:26;;;;;;;13.50;8.13;;;;;;;;;;4996063;28;20487;-60
2023/06/02 10:32:53;;;;;;;10.23;8.00;;;;;;;;;;4996153;28;20413;-59
2023/06/02 10:35:22;;;;;;;10.60;8.57;;;;;;;;;;4995931;28;20496;-60
2023/06/02 10:38:07;;;;;;;8.40;7.60;;;;;;;;;;4996003;28;20472;-60
2023/06/02 10:40:50;;;;;;;17.93;8.43;;;;;;;;;;4995665;28;20602;-60
2023/06/02 10:43:17;;;;;;;8.47;7.67;;;;;;;;;;4996108;28;20425;-60
2023/06/02 10:45:44;;;;;;;9.93;8.10;;;;;;;;;;4995917;28;20535;-59
2023/06/02 10:48:29;;;;;;;8.10;7.23;;;;;;;;;;4995702;28;20421;-60
2023/06/02 10:50:55;;;;;;;13.83;7.30;;;;;;;;;;4995812;28;20444;-59
2023/06/02 10:53:21;;;;;;;9.60;8.00;;;;;;;;;;4995398;28;20470;-60
2023/06/02 10:55:47;;;;;;;14.13;8.20;;;;;;;;;;4995450;28;20437;-60
2023/06/02 10:58:12;;;;;;;9.00;8.00;;;;;;;;;;4995286;28;20511;-60
2023/06/02 11:00:50;;;;;;;15.30;7.80;;;;;;;;;;4995297;28;20510;-60
2023/06/02 11:03:17;;;;;;;8.13;7.50;;;;;;;;;;4995565;28;21037;-60
2023/06/02 11:05:43;;;;;;;11.57;7.00;;;;;;;;;;4995368;28;20496;-60
2023/06/02 11:08:15;;;;;;;11.50;6.57;;;;;;;;;;4995547;28;20440;-60
2023/06/02 11:10:43;;;;;;;8.60;7.37;;;;;;;;;;4995346;28;20462;-60
2023/06/02 11:13:10;;;;;;;12.07;7.83;;;;;;;;;;4995271;28;20992;-60
2023/06/02 11:15:36;;;;;;;10.73;8.23;;;;;;;;;;4995175;28;20443;-60
2023/06/02 11:18:11;;;;;;;11.00;7.50;;;;;;;;;;4995162;28;20573;-60
2023/06/02 11:20:37;;;;;;;7.40;6.80;;;;;;;;;;4995083;28;20446;-60
2023/06/02 11:23:07;;;;;;;7.83;7.13;;;;;;;;;;4994224;28;20471;-60
2023/06/02 11:25:35;;;;;;;9.00;7.87;;;;;;;;;;4994980;28;20973;-60
2023/06/02 11:28:01;;;;;;;9.40;7.13;;;;;;;;;;4995080;28;20435;-60
2023/06/02 11:30:30;;;;;;;12.17;7.27;;;;;;;;;;4994887;28;20432;-60
2023/06/02 11:32:56;;;;;;;10.30;7.40;;;;;;;;;;4994865;28;20421;-60
2023/06/02 11:35:23;;;;;;;10.40;7.60;;;;;;;;;;4994645;28;20442;-60
2023/06/02 11:38:03;;;;;;;9.43;7.80;;;;;;;;;;4994423;28;20816;-59
2023/06/02 11:40:33;;;;;;;8.23;7.00;;;;;;;;;;4994673;28;20443;-60
2023/06/02 11:43:03;;;;;;;10.40;7.00;;;;;;;;;;4994537;28;20415;-60
2023/06/02 11:45:29;;;;;;;8.23;7.53;;;;;;;;;;4994555;28;20447;-60
2023/06/02 11:47:58;;;;;;;8.27;7.00;;;;;;;;;;4993294;28;20431;-60
2023/06/02 11:50:25;;;;;;;7.03;6.53;;;;;;;;;;4994318;28;20415;-60
2023/06/02 11:52:50;;;;;;;11.23;7.03;;;;;;;;;;4993226;28;20531;-59
2023/06/02 11:55:21;;;;;;;7.67;6.87;;;;;;;;;;4992745;28;20568;-60
2023/06/02 11:57:47;;;;;;;8.10;7.30;;;;;;;;;;4994213;28;20511;-60
2023/06/02 12:00:19;;;;;;;6.60;6.13;;;;;;;;;;4994116;28;20463;-60
2023/06/02 12:02:51;;;;;;;7.77;7.10;;;;;;;;;;4994052;28;20489;-60
2023/06/02 12:05:30;;;;;;;8.20;6.77;;;;;;;;;;4994392;28;20413;-60
2023/06/02 12:08:07;;;;;;;14.77;7.33;;;;;;;;;;4994257;28;20418;-60
2023/06/02 12:10:33;;;;;;;9.73;6.77;;;;;;;;;;4994096;28;20828;-60
2023/06/02 12:12:59;;;;;;;7.13;6.40;;;;;;;;;;4994081;28;20917;-60
2023/06/02 12:15:32;;;;;;;9.33;6.90;;;;;;;;;;4994170;28;20408;-60
2023/06/02 12:18:01;;;;;;;6.87;6.37;;;;;;;;;;4994098;28;20457;-60
2023/06/02 12:20:53;;;;;;;8.33;6.07;;;;;;;;;;4994037;28;20444;-60
2023/06/02 12:23:19;;;;;;;7.00;6.40;;;;;;;;;;4991617;28;20830;-60
2023/06/02 12:25:59;;;;;;;11.27;6.40;;;;;;;;;;4993871;28;20498;-60
2023/06/02 12:28:27;;;;;;;8.83;6.00;;;;;;;;;;4993979;28;20463;-60
2023/06/02 12:30:55;;;;;;;8.10;6.23;;;;;;;;;;4993696;28;20825;-60
2023/06/02 12:33:21;;;;;;;7.03;6.43;;;;;;;;;;4992893;28;20439;-60
2023/06/02 12:35:47;;;;;;;6.60;5.80;;;;;;;;;;4993595;28;20798;-60
2023/06/02 12:38:14;;;;;;;6.30;5.80;;;;;;;;;;4993628;28;20468;-60
2023/06/02 12:40:40;;;;;;;9.80;6.10;;;;;;;;;;4993755;28;20967;-60
2023/06/02 12:43:06;;;;;;;6.57;5.80;;;;;;;;;;4993886;28;20396;-60
2023/06/02 12:45:33;;;;;;;6.73;6.23;;;;;;;;;;4993688;28;20507;-60
2023/06/02 12:47:59;;;;;;;6.17;5.67;;;;;;;;;;4993506;28;20427;-60
2023/06/02 12:50:28;;;;;;;9.80;6.37;;;;;;;;;;4993517;28;20779;-60
2023/06/02 12:52:55;;;;;;;6.43;5.90;;;;;;;;;;4993475;28;20435;-60
2023/06/02 12:55:21;;;;;;;6.97;6.37;;;;;;;;;;4993538;28;20416;-60
2023/06/02 12:57:47;;;;;;;7.20;6.40;;;;;;;;;;4992016;28;20474;-60
2023/06/02 13:00:14;;;;;;;7.87;5.90;;;;;;;;;;4992210;28;20432;-60
2023/06/02 13:02:46;;;;;;;14.87;6.07;;;;;;;;;;4993365;28;20416;-60
2023/06/02 13:05:12;;;;;;;8.70;5.73;;;;;;;;;;4993257;28;20419;-60
2023/06/02 13:07:38;;;;;;;6.50;5.90;;;;;;;;;;4993087;28;20433;-60
2023/06/02 13:10:05;;;;;;;6.40;5.80;;;;;;;;;;4993231;28;20420;-60
2023/06/02 13:12:31;;;;;;;6.87;6.27;;;;;;;;;;4993242;28;20567;-60
2023/06/02 13:14:57;;;;;;;11.00;5.30;;;;;;;;;;4993201;28;20413;-60
2023/06/02 13:17:23;;;;;;;6.70;5.97;;;;;;;;;;4993411;28;20445;-60
2023/06/02 13:19:49;;;;;;;7.30;6.50;;;;;;;;;;4993171;28;20800;-60
2023/06/02 13:22:15;;;;;;;9.10;5.67;;;;;;;;;;4993291;28;20442;-60
2023/06/02 13:24:41;;;;;;;6.63;5.97;;;;;;;;;;4992084;28;20428;-60
2023/06/02 13:27:08;;;;;;;12.10;5.53;;;;;;;;;;4992840;28;20487;-60
2023/06/02 13:29:39;;;;;;;9.93;6.00;;;;;;;;;;4993306;28;20484;-60
2023/06/02 13:32:05;;;;;;;7.13;5.50;;;;;;;;;;4992761;28;20438;-60
2023/06/02 13:34:31;;;;;;;7.40;6.33;;;;;;;;;;4993033;28;20436;-60
2023/06/02 13:36:57;;;;;;;12.47;5.90;;;;;;;;;;4993142;28;20440;-60
2023/06/02 13:39:26;;;;;;;6.67;6.00;;;;;;;;;;4992896;28;20472;-60
2023/06/02 13:41:54;;;;;;;5.87;5.30;;;;;;;;;;4991566;28;20961;-60
2023/06/02 13:44:23;;;;;;;16.27;5.97;;;;;;;;;;4992804;28;20903;-60
2023/06/02 13:46:52;;;;;;;5.97;5.47;;;;;;;;;;4996646;28;20420;-60
2023/06/02 13:49:19;;;;;;;7.40;5.27;;;;;;;;;;4996659;28;20425;-60
2023/06/02 13:51:49;;;;;;;6.60;5.50;;;;;;;;;;4996846;28;20485;-60
2023/06/02 13:54:18;;;;;;;10.33;5.60;;;;;;;;;;4996779;28;20420;-60
2023/06/02 13:56:45;;;;;;;6.07;5.60;;;;;;;;;;4996342;28;20916;-60
2023/06/02 13:59:12;;;;;;;7.20;5.70;;;;;;;;;;4996806;28;20505;-60
2023/06/02 14:01:38;;;;;;;8.73;5.33;;;;;;;;;;4996776;28;20448;-60
2023/06/02 14:04:06;;;;;;;6.77;5.60;;;;;;;;;;4996611;28;20423;-60
2023/06/02 14:06:35;;;;;;;6.43;5.53;;;;;;;;;;4996627;28;20502;-60
2023/06/02 14:09:02;;;;;;;5.93;5.43;;;;;;;;;;4996544;28;20558;-60
2023/06/02 14:11:28;;;;;;;6.60;5.67;;;;;;;;;;4996126;28;20431;-60
2023/06/02 14:13:55;;;;;;;10.23;5.30;;;;;;;;;;4996309;28;20832;-60
2023/06/02 14:16:21;;;;;;;5.93;5.37;;;;;;;;;;4996738;28;20448;-60
2023/06/02 14:18:47;;;;;;;6.47;5.70;;;;;;;;;;4994789;28;21152;-61
2023/06/02 14:21:15;;;;;;;7.83;5.17;;;;;;;;;;4996136;28;20425;-61
2023/06/02 14:23:41;;;;;;;5.87;5.20;;;;;;;;;;4995743;28;20425;-61
2023/06/02 14:26:07;;;;;;;9.13;5.70;;;;;;;;;;4996071;28;20428;-61
2023/06/02 14:28:33;;;;;;;11.40;5.23;;;;;;;;;;4995956;28;20467;-61
2023/06/02 14:30:59;;;;;;;6.10;5.60;;;;;;;;;;4996048;28;20906;-61
2023/06/02 14:33:25;;;;;;;8.90;5.20;;;;;;;;;;4995996;28;20444;-61
2023/06/02 14:35:54;;;;;;;10.40;5.40;;;;;;;;;;4995947;28;20499;-61
2023/06/02 14:38:20;;;;;;;5.27;4.87;;;;;;;;;;4995899;28;20515;-61